createdAt,value
2019-02-05T00:06:06.899Z,-0.50
2019-02-05T00:10:58.074Z,-0.50
2019-02-05T00:15:51.645Z,-0.40
2019-02-05T00:20:43.048Z,-0.40
2019-02-05T00:25:36.636Z,-0.40
2019-02-05T00:30:28.186Z,-0.40
2019-02-05T00:35:19.484Z,-0.50
2019-02-05T00:40:13.138Z,-0.50
2019-02-05T00:45:04.562Z,-0.60
2019-02-05T00:49:56.025Z,-0.60
2019-02-05T00:54:47.538Z,-0.60
2019-02-05T00:59:38.839Z,-0.60
2019-02-05T01:04:32.383Z,-0.70
2019-02-05T01:09:23.890Z,-0.70
2019-02-05T01:14:17.457Z,-0.80
2019-02-05T01:19:08.895Z,-0.90
2019-02-05T01:24:00.313Z,-0.90
2019-02-05T01:28:53.898Z,-1.20
2019-02-05T01:33:45.367Z,-1.20
2019-02-05T01:38:36.796Z,-1.20
2019-02-05T01:43:30.331Z,-1.30
2019-02-05T01:48:21.854Z,-1.30
2019-02-05T01:53:13.135Z,-1.40
2019-02-05T01:58:04.696Z,-1.50
2019-02-05T02:02:55.939Z,-1.50
2019-02-05T02:07:48.585Z,-1.50
2019-02-05T02:12:45.512Z,-1.60
2019-02-05T02:17:36.977Z,-1.60
2019-02-05T02:22:28.424Z,-1.70
2019-02-05T02:27:20.861Z,-1.70
2019-02-05T02:32:11.125Z,-1.70
2019-02-05T02:37:02.624Z,-1.70
2019-02-05T02:41:56.165Z,-1.50
2019-02-05T02:46:47.655Z,-1.60
2019-02-05T02:51:38.961Z,-1.70
2019-02-05T02:56:32.626Z,-1.80
2019-02-05T03:01:26.388Z,-1.90
2019-02-05T03:06:17.919Z,-2.00
2019-02-05T03:11:09.610Z,-2.00
2019-02-05T03:16:00.654Z,-2.00
2019-02-05T03:20:52.350Z,-2.10
2019-02-05T03:25:43.425Z,-2.20
2019-02-05T03:30:34.812Z,-2.10
2019-02-05T03:35:26.795Z,-2.20
2019-02-05T03:40:17.690Z,-2.30
2019-02-05T03:45:09.187Z,-2.50
2019-02-05T03:50:00.593Z,-2.30
2019-02-05T03:54:51.928Z,-2.40
2019-02-05T03:59:43.943Z,-2.60
2019-02-05T04:04:34.758Z,-2.40
2019-02-05T04:09:26.162Z,-2.70
2019-02-05T04:14:17.490Z,-2.60
2019-02-05T04:19:08.891Z,-2.70
2019-02-05T04:24:00.356Z,-2.70
2019-02-05T04:28:51.699Z,-2.80
2019-02-05T04:33:43.140Z,-2.80
2019-02-05T04:38:34.604Z,-2.80
2019-02-05T04:43:26.943Z,-2.80
2019-02-05T04:48:17.300Z,-3.10
2019-02-05T04:53:08.717Z,-3.20
2019-02-05T04:58:02.383Z,-3.30
2019-02-05T05:02:51.554Z,-3.50
2019-02-05T05:07:42.850Z,-3.50
2019-02-05T05:12:34.323Z,-3.60
2019-02-05T05:17:25.753Z,-3.70
2019-02-05T05:22:17.226Z,-3.80
2019-02-05T05:27:08.513Z,-3.80
2019-02-05T05:32:00.019Z,-3.80
2019-02-05T05:36:51.423Z,-3.80
2019-02-05T05:41:42.838Z,-3.90
2019-02-05T05:46:34.154Z,-3.90
2019-02-05T05:51:28.107Z,-4.10
2019-02-05T05:56:19.225Z,-4.20
2019-02-05T06:01:10.672Z,-4.10
2019-02-05T06:06:02.258Z,-4.10
2019-02-05T06:10:53.526Z,-4.20
2019-02-05T06:15:45.647Z,-4.20
2019-02-05T06:20:36.315Z,-4.10
2019-02-05T06:25:27.742Z,-4.20
2019-02-05T06:35:10.415Z,-4.30
2019-02-05T06:40:02.843Z,-4.40
2019-02-05T06:44:53.337Z,-4.40
2019-02-05T06:49:44.762Z,-5.10
2019-02-05T06:54:36.142Z,-4.70
2019-02-05T06:59:27.578Z,-4.90
2019-02-05T07:04:19.540Z,-4.50
2019-02-05T07:09:10.519Z,-4.50
2019-02-05T07:14:01.821Z,-4.50
2019-02-05T07:18:53.308Z,-4.40
2019-02-05T07:23:44.644Z,-4.30
2019-02-05T07:28:36.092Z,-4.10
2019-02-05T07:33:27.404Z,-4.40
2019-02-05T07:38:19.070Z,-4.00
2019-02-05T07:43:10.345Z,-3.90
2019-02-05T07:48:02.034Z,-3.80
2019-02-05T07:52:53.429Z,-3.70
2019-02-05T07:57:44.614Z,-3.60
2019-02-05T08:02:35.922Z,-3.50
2019-02-05T08:07:27.299Z,-3.20
2019-02-05T08:12:18.791Z,-3.20
2019-02-05T08:17:12.420Z,-2.70
2019-02-05T08:22:04.839Z,-2.40
2019-02-05T08:26:55.354Z,-2.40
2019-02-05T08:31:46.668Z,-2.00
2019-02-05T08:36:38.146Z,-1.70
2019-02-05T08:41:29.575Z,-1.50
2019-02-05T08:46:21.827Z,-1.20
2019-02-05T08:51:14.474Z,-1.00
2019-02-05T08:56:06.011Z,-1.00
2019-02-05T09:00:59.577Z,-0.50
2019-02-05T09:05:51.133Z,-0.30
2019-02-05T09:10:43.433Z,-0.10
2019-02-05T09:15:33.964Z,0.20
2019-02-05T09:20:25.296Z,0.40
2019-02-05T09:25:16.751Z,0.60
2019-02-05T09:30:08.124Z,0.80
2019-02-05T09:35:00.817Z,0.70
2019-02-05T09:39:50.928Z,1.00
2019-02-05T09:44:42.377Z,1.40
2019-02-05T09:49:33.719Z,1.40
2019-02-05T09:54:27.300Z,1.80
2019-02-05T09:59:19.750Z,1.90
2019-02-05T10:04:12.374Z,1.90
2019-02-05T10:09:03.898Z,2.00
2019-02-05T10:13:55.420Z,2.20
2019-02-05T10:18:46.897Z,2.50
2019-02-05T10:23:40.461Z,2.70
2019-02-05T10:28:31.715Z,3.00
2019-02-05T10:33:25.322Z,3.20
2019-02-05T10:38:16.808Z,3.20
2019-02-05T10:43:08.252Z,3.30
2019-02-05T10:57:44.677Z,3.70
2019-02-05T11:27:02.032Z,5.00
2019-02-05T11:31:54.353Z,5.10
2019-02-05T11:36:44.857Z,5.10
2019-02-05T11:46:27.652Z,5.10
2019-02-05T12:05:53.474Z,5.40
2019-02-05T12:10:44.711Z,5.40
2019-02-05T12:44:51.888Z,5.70
2019-02-05T12:49:44.804Z,5.70
2019-02-05T13:04:19.164Z,5.90
2019-02-05T13:14:01.849Z,5.90
2019-02-05T13:18:53.157Z,5.90
2019-02-05T13:23:44.628Z,5.90
2019-02-05T13:33:27.404Z,6.30
2019-02-05T13:48:02.526Z,6.10
2019-02-05T13:52:52.939Z,6.20
2019-02-05T13:57:44.318Z,6.20
2019-02-05T14:07:32.627Z,6.20
2019-02-05T14:12:23.309Z,6.40
2019-02-05T14:17:14.452Z,6.30
2019-02-05T14:22:06.050Z,6.20
2019-02-05T14:26:57.307Z,6.30
2019-02-05T14:31:48.671Z,6.30
2019-02-05T14:36:40.043Z,6.10
2019-02-05T14:41:33.631Z,6.20
2019-02-05T14:46:25.091Z,6.20
2019-02-05T14:51:23.247Z,6.30
2019-02-05T14:56:14.675Z,6.20
2019-02-05T15:01:08.371Z,6.10
2019-02-05T15:05:59.880Z,6.00
2019-02-05T15:10:51.339Z,6.00
2019-02-05T15:15:42.621Z,6.00
2019-02-05T15:35:08.209Z,5.40
2019-02-05T15:44:51.134Z,5.10
2019-02-05T15:56:18.782Z,4.80
2019-02-05T16:01:09.933Z,4.40
2019-02-05T16:06:01.438Z,4.50
2019-02-05T16:10:52.736Z,3.90
2019-02-05T16:15:44.694Z,3.90
2019-02-05T16:30:20.782Z,3.10
2019-02-05T16:35:12.130Z,2.80
2019-02-05T16:40:03.627Z,2.10
2019-02-05T16:44:54.922Z,1.70
2019-02-05T16:49:46.334Z,1.70
2019-02-05T16:54:37.772Z,1.40
2019-02-05T16:59:29.026Z,1.20
2019-02-05T17:04:20.515Z,0.90
2019-02-05T17:09:11.868Z,0.80
2019-02-05T17:14:05.443Z,0.60
2019-02-05T17:18:56.898Z,0.40
2019-02-05T17:23:48.334Z,0.50
2019-02-05T17:28:40.749Z,0.20
2019-02-05T17:33:31.064Z,0.10
2019-02-05T17:38:25.293Z,0.10
2019-02-05T17:43:13.867Z,-0.10
2019-02-05T17:48:05.315Z,-0.60
2019-02-05T17:52:56.649Z,-0.60
2019-02-05T17:57:48.052Z,-0.70
2019-02-05T18:02:39.350Z,-0.80
2019-02-05T18:07:30.746Z,-0.90
2019-02-05T18:12:22.938Z,-1.10
2019-02-05T18:17:24.920Z,-1.20
2019-02-05T18:22:16.354Z,-1.30
2019-02-05T18:27:07.872Z,-1.20
2019-02-05T18:31:59.141Z,-1.30
2019-02-05T18:36:50.540Z,-1.30
2019-02-05T18:41:44.122Z,-1.50
2019-02-05T18:46:35.610Z,-1.60
2019-02-05T18:51:27.613Z,-1.80
2019-02-05T18:56:18.554Z,-1.80
2019-02-05T19:01:09.724Z,-1.80
2019-02-05T19:06:01.178Z,-2.00
2019-02-05T19:10:52.461Z,-2.00
2019-02-05T19:15:44.006Z,-2.10
2019-02-05T19:20:35.323Z,-2.10
2019-02-05T19:25:27.073Z,-2.20
2019-02-05T19:30:18.013Z,-2.40
2019-02-05T19:35:10.288Z,-2.40
2019-02-05T19:40:00.934Z,-2.40
2019-02-05T19:44:52.260Z,-2.40
2019-02-05T19:49:43.558Z,-2.60
2019-02-05T19:54:35.187Z,-2.70
2019-02-05T19:59:26.413Z,-2.80
2019-02-05T20:04:20.016Z,-2.80
2019-02-05T20:09:11.555Z,-2.80
2019-02-05T20:14:02.973Z,-2.70
2019-02-05T20:18:54.290Z,-2.80
2019-02-05T20:23:45.582Z,-2.90
2019-02-05T20:28:37.027Z,-3.00
2019-02-05T20:33:28.462Z,-3.20
2019-02-05T20:38:19.824Z,-3.30
2019-02-05T20:43:11.112Z,-3.30
2019-02-05T20:48:02.633Z,-3.30
2019-02-05T20:52:54.037Z,-3.30
2019-02-05T20:57:45.729Z,-3.30
2019-02-05T21:02:36.730Z,-3.40
2019-02-05T21:07:28.149Z,-3.40
2019-02-05T21:12:19.577Z,-3.40
2019-02-05T21:17:10.881Z,-3.70
2019-02-05T21:22:04.814Z,-3.50
2019-02-05T21:26:56.293Z,-3.50
2019-02-05T21:31:47.749Z,-3.50
2019-02-05T21:36:40.247Z,-3.60
2019-02-05T21:41:30.484Z,-3.80
2019-02-05T21:46:21.921Z,-3.80
2019-02-05T21:51:13.319Z,-3.70
2019-02-05T21:56:04.677Z,-4.20
2019-02-05T22:00:57.109Z,-3.70
2019-02-05T22:05:47.633Z,-3.80
2019-02-05T22:10:38.908Z,-3.80
2019-02-05T22:15:30.339Z,-3.90
2019-02-05T22:20:21.721Z,-4.00
2019-02-05T22:25:13.069Z,-4.00
2019-02-05T22:30:05.521Z,-4.00
2019-02-05T22:34:55.834Z,-4.00
2019-02-05T22:39:47.303Z,-4.00
2019-02-05T22:44:38.685Z,-4.00
2019-02-05T22:49:30.127Z,-4.00
2019-02-05T22:54:23.680Z,-4.10
2019-02-05T22:59:15.289Z,-4.20
2019-02-05T23:04:07.308Z,-4.30
2019-02-05T23:08:57.855Z,-4.20
2019-02-05T23:13:51.547Z,-4.30
2019-02-05T23:18:42.923Z,-4.30
2019-02-05T23:23:34.335Z,-4.30
2019-02-05T23:28:26.475Z,-4.30
2019-02-05T23:33:17.163Z,-4.20
2019-02-05T23:38:08.532Z,-4.20
2019-02-05T23:43:00.031Z,-4.40
2019-02-05T23:47:51.342Z,-4.30
2019-02-05T23:52:42.787Z,-4.20
2019-02-05T23:57:34.118Z,-4.30
